createdAt,value
2018-03-25T00:02:08.439Z,35.17
2018-03-25T00:04:36.770Z,39.80
2018-03-25T00:07:05.068Z,35.00
2018-03-25T00:09:33.446Z,38.30
2018-03-25T00:12:01.746Z,37.07
2018-03-25T00:14:30.850Z,39.30
2018-03-25T00:16:59.909Z,33.40
2018-03-25T00:19:28.238Z,36.33
2018-03-25T00:21:56.586Z,33.17
2018-03-25T00:24:25.709Z,39.40
2018-03-25T00:26:54.045Z,34.10
2018-03-25T00:29:22.346Z,34.93
2018-03-25T00:31:50.704Z,35.57
2018-03-25T00:34:19.794Z,35.77
2018-03-25T00:36:48.141Z,36.77
2018-03-25T00:39:16.441Z,33.87
2018-03-25T00:41:45.566Z,35.63
2018-03-25T00:44:14.638Z,34.67
2018-03-25T00:46:42.974Z,36.43
2018-03-25T00:49:11.286Z,35.37
2018-03-25T00:51:39.625Z,42.90
2018-03-25T00:54:07.977Z,34.17
2018-03-25T00:56:36.314Z,37.80
2018-03-25T00:59:04.627Z,35.10
2018-03-25T01:01:32.993Z,37.17
2018-03-25T01:04:02.082Z,35.40
2018-03-25T01:06:30.409Z,33.87
2018-03-25T01:08:58.724Z,33.87
2018-03-25T01:11:27.835Z,33.20
2018-03-25T01:13:56.910Z,33.40
2018-03-25T01:16:26.866Z,34.40
2018-03-25T01:18:55.174Z,38.83
2018-03-25T01:21:23.533Z,35.53
2018-03-25T01:23:51.888Z,37.23
2018-03-25T01:26:20.952Z,37.90
2018-03-25T01:28:50.080Z,35.40
2018-03-25T01:31:19.151Z,38.27
2018-03-25T01:33:47.542Z,40.27
2018-03-25T01:36:16.602Z,40.13
2018-03-25T01:38:44.926Z,37.37
2018-03-25T01:41:13.238Z,39.07
2018-03-25T01:43:41.621Z,37.87
2018-03-25T01:46:09.963Z,37.87
2018-03-25T01:48:38.266Z,38.60
2018-03-25T01:51:06.603Z,36.00
2018-03-25T01:53:35.666Z,35.60
2018-03-25T01:56:04.782Z,39.60
2018-03-25T01:58:33.857Z,36.40
2018-03-25T02:01:02.213Z,39.73
2018-03-25T02:03:30.849Z,36.93
2018-03-25T02:05:59.986Z,36.47
2018-03-25T02:08:28.318Z,41.93
2018-03-25T02:10:57.423Z,39.57
2018-03-25T02:13:25.737Z,35.13
2018-03-25T02:15:54.482Z,35.77
2018-03-25T02:18:23.539Z,37.07
2018-03-25T02:20:51.846Z,37.67
2018-03-25T02:23:20.955Z,38.60
2018-03-25T02:25:49.266Z,39.03
2018-03-25T02:28:17.601Z,37.53
2018-03-25T02:30:46.666Z,37.87
2018-03-25T02:33:15.002Z,36.97
2018-03-25T02:35:43.290Z,43.10
2018-03-25T02:38:11.630Z,38.13
2018-03-25T02:40:39.935Z,38.93
2018-03-25T02:43:08.286Z,42.00
2018-03-25T02:45:36.592Z,41.10
2018-03-25T02:48:04.967Z,48.23
2018-03-25T02:50:33.271Z,48.07
2018-03-25T02:53:01.602Z,43.00
2018-03-25T02:55:29.927Z,41.70
2018-03-25T02:57:58.231Z,42.40
2018-03-25T03:00:26.999Z,41.87
2018-03-25T03:02:55.308Z,42.63
2018-03-25T03:05:24.404Z,46.77
2018-03-25T03:07:53.487Z,42.83
2018-03-25T03:10:22.606Z,39.47
2018-03-25T03:12:50.905Z,43.60
2018-03-25T03:15:19.210Z,42.63
2018-03-25T03:17:47.534Z,41.57
2018-03-25T03:20:15.847Z,44.33
2018-03-25T03:22:44.190Z,45.20
2018-03-25T03:25:12.494Z,43.70
2018-03-25T03:27:40.922Z,43.13
2018-03-25T03:30:10.008Z,46.40
2018-03-25T03:32:38.338Z,44.87
2018-03-25T03:35:06.649Z,40.43
2018-03-25T03:37:34.968Z,40.20
2018-03-25T03:40:03.277Z,43.07
2018-03-25T03:42:31.619Z,42.47
2018-03-25T03:44:59.923Z,45.33
2018-03-25T03:47:28.218Z,43.90
2018-03-25T03:49:56.557Z,39.87
2018-03-25T03:52:24.858Z,46.97
2018-03-25T03:54:53.185Z,44.93
2018-03-25T03:57:21.565Z,44.10
2018-03-25T03:59:50.761Z,37.77
2018-03-25T04:02:19.818Z,44.30
2018-03-25T04:04:48.117Z,45.87
2018-03-25T04:07:16.441Z,38.83
2018-03-25T04:09:44.742Z,47.43
2018-03-25T04:12:13.070Z,41.27
2018-03-25T04:14:41.791Z,39.00
2018-03-25T04:17:10.117Z,40.27
2018-03-25T04:19:39.182Z,40.37
2018-03-25T04:22:07.589Z,44.30
2018-03-25T04:24:36.650Z,42.10
2018-03-25T04:27:05.031Z,43.10
2018-03-25T04:29:33.325Z,45.20
2018-03-25T04:32:01.675Z,43.43
2018-03-25T04:34:29.990Z,40.53
2018-03-25T04:36:59.055Z,41.73
2018-03-25T04:39:27.382Z,40.17
2018-03-25T04:41:55.698Z,40.60
2018-03-25T04:44:24.054Z,42.43
2018-03-25T04:46:52.366Z,41.97
2018-03-25T04:51:55.506Z,46.97
2018-03-25T04:54:23.822Z,43.77
2018-03-25T04:56:52.143Z,43.57
2018-03-25T04:59:20.457Z,41.37
2018-03-25T05:01:48.782Z,112.17
2018-03-25T05:04:17.093Z,43.33
2018-03-25T05:06:46.214Z,44.53
2018-03-25T05:09:14.779Z,49.10
2018-03-25T05:11:43.143Z,42.47
2018-03-25T05:14:12.203Z,43.43
2018-03-25T05:16:40.526Z,48.70
2018-03-25T05:19:08.825Z,44.60
2018-03-25T05:21:37.181Z,45.77
2018-03-25T05:24:05.494Z,44.90
2018-03-25T05:26:33.798Z,52.10
2018-03-25T05:29:03.638Z,47.80
2018-03-25T05:31:31.966Z,46.07
2018-03-25T05:34:00.314Z,46.57
2018-03-25T05:36:28.647Z,45.13
2018-03-25T05:38:56.978Z,43.03
2018-03-25T05:41:25.320Z,47.67
2018-03-25T05:43:53.650Z,43.50
2018-03-25T05:46:21.966Z,49.30
2018-03-25T05:48:50.342Z,46.27
2018-03-25T05:51:19.414Z,46.23
2018-03-25T05:53:47.815Z,45.03
2018-03-25T05:56:16.911Z,47.10
2018-03-25T05:58:45.238Z,46.20
2018-03-25T06:01:13.601Z,42.53
2018-03-25T06:03:41.922Z,42.93
2018-03-25T06:06:10.533Z,43.13
2018-03-25T06:08:38.880Z,47.93
2018-03-25T06:11:07.194Z,46.97
2018-03-25T06:13:35.498Z,44.40
2018-03-25T06:16:03.826Z,40.30
2018-03-25T06:18:32.126Z,48.47
2018-03-25T06:21:01.234Z,47.07
2018-03-25T06:23:29.587Z,45.43
2018-03-25T06:25:58.662Z,47.90
2018-03-25T06:28:27.786Z,45.40
2018-03-25T06:30:56.100Z,44.93
2018-03-25T06:33:24.455Z,45.97
2018-03-25T06:35:53.114Z,41.23
2018-03-25T06:38:22.235Z,43.57
2018-03-25T06:40:50.539Z,44.63
2018-03-25T06:43:18.886Z,45.57
2018-03-25T06:45:47.206Z,42.57
2018-03-25T06:48:15.489Z,45.43
2018-03-25T06:50:45.494Z,47.97
2018-03-25T06:53:15.326Z,46.50
2018-03-25T06:55:45.373Z,46.80
2018-03-25T06:58:15.270Z,42.30
2018-03-25T07:00:45.141Z,46.90
2018-03-25T07:03:14.966Z,42.77
2018-03-25T07:05:44.850Z,44.33
2018-03-25T07:08:14.681Z,45.03
2018-03-25T07:10:44.753Z,43.53
2018-03-25T07:13:14.630Z,42.00
2018-03-25T07:15:44.505Z,42.40
2018-03-25T07:18:14.365Z,48.23
2018-03-25T07:20:44.198Z,43.47
2018-03-25T07:23:14.113Z,40.70
2018-03-25T07:25:43.991Z,43.40
2018-03-25T07:28:13.865Z,42.30
2018-03-25T07:30:43.694Z,43.80
2018-03-25T07:33:13.550Z,41.77
2018-03-25T07:35:43.564Z,42.60
2018-03-25T07:38:13.430Z,44.83
2018-03-25T07:40:43.521Z,40.13
2018-03-25T07:43:13.401Z,40.57
2018-03-25T07:45:43.273Z,43.27
2018-03-25T07:48:13.094Z,44.50
2018-03-25T07:50:42.958Z,45.17
2018-03-25T07:53:12.883Z,46.50
2018-03-25T07:55:42.745Z,44.53
2018-03-25T07:58:12.609Z,43.07
2018-03-25T08:00:42.478Z,43.40
2018-03-25T08:03:12.309Z,43.40
2018-03-25T08:05:42.177Z,42.00
2018-03-25T08:08:12.055Z,41.23
2018-03-25T08:10:42.281Z,41.93
2018-03-25T08:13:12.114Z,45.77
2018-03-25T08:15:41.991Z,39.03
2018-03-25T08:18:11.886Z,46.97
2018-03-25T08:20:41.829Z,43.30
2018-03-25T08:23:12.058Z,46.10
2018-03-25T08:25:41.905Z,45.10
2018-03-25T08:28:11.794Z,45.10
2018-03-25T08:30:41.620Z,45.03
2018-03-25T08:33:11.584Z,43.10
2018-03-25T08:35:41.430Z,39.50
2018-03-25T08:38:11.298Z,43.47
2018-03-25T08:40:41.125Z,46.83
2018-03-25T08:43:11.006Z,41.93
2018-03-25T08:45:40.839Z,44.33
2018-03-25T08:48:10.705Z,46.13
2018-03-25T08:50:40.542Z,56.60
2018-03-25T08:53:10.422Z,39.57
2018-03-25T08:55:40.380Z,39.93
2018-03-25T08:58:10.214Z,39.33
2018-03-25T09:00:40.106Z,39.33
2018-03-25T09:03:09.937Z,42.20
2018-03-25T09:05:39.813Z,40.30
2018-03-25T09:08:09.919Z,38.33
2018-03-25T09:10:39.790Z,37.00
2018-03-25T09:13:09.671Z,40.40
2018-03-25T09:15:39.529Z,39.57
2018-03-25T09:18:09.370Z,35.10
2018-03-25T09:20:39.294Z,38.33
2018-03-25T09:23:09.200Z,42.53
2018-03-25T09:25:37.539Z,40.77
2018-03-25T09:28:05.859Z,37.57
2018-03-25T09:30:34.165Z,37.63
2018-03-25T09:33:02.551Z,34.10
2018-03-25T09:35:30.858Z,36.43
2018-03-25T09:37:59.946Z,37.67
2018-03-25T09:40:28.270Z,39.97
2018-03-25T09:42:58.138Z,38.00
2018-03-25T09:45:26.445Z,34.13
2018-03-25T09:47:54.790Z,38.27
2018-03-25T09:50:23.093Z,35.20
2018-03-25T09:52:51.430Z,33.77
2018-03-25T09:55:20.507Z,35.17
2018-03-25T09:57:48.849Z,31.60
2018-03-25T10:00:22.790Z,32.97
2018-03-25T10:02:51.402Z,29.33
2018-03-25T10:05:20.494Z,31.30
2018-03-25T10:07:49.599Z,28.10
2018-03-25T10:10:17.917Z,31.07
2018-03-25T10:12:46.252Z,28.57
2018-03-25T10:15:14.562Z,32.03
2018-03-25T10:17:42.926Z,29.77
2018-03-25T10:20:11.263Z,28.20
2018-03-25T10:22:40.345Z,25.93
2018-03-25T10:25:08.698Z,25.80
2018-03-25T10:27:37.024Z,25.87
2018-03-25T10:30:06.623Z,26.10
2018-03-25T10:32:35.014Z,27.97
2018-03-25T10:35:04.132Z,26.63
2018-03-25T10:37:33.290Z,28.63
2018-03-25T10:40:01.676Z,26.57
2018-03-25T10:42:30.762Z,27.30
2018-03-25T10:44:59.098Z,24.90
2018-03-25T10:47:27.423Z,29.13
2018-03-25T10:49:56.531Z,25.90
2018-03-25T10:52:24.846Z,26.30
2018-03-25T10:54:53.190Z,28.33
2018-03-25T10:57:21.485Z,29.07
2018-03-25T10:59:49.829Z,28.33
2018-03-25T11:02:18.146Z,28.00
2018-03-25T11:04:46.478Z,28.47
2018-03-25T11:07:15.553Z,31.73
2018-03-25T11:09:43.871Z,28.00
2018-03-25T11:12:12.170Z,29.67
2018-03-25T11:14:40.534Z,33.33
2018-03-25T11:17:08.835Z,30.13
2018-03-25T11:19:37.203Z,33.23
2018-03-25T11:22:05.505Z,30.60
2018-03-25T11:24:33.829Z,34.77
2018-03-25T11:27:02.214Z,34.30
2018-03-25T11:29:30.559Z,33.37
2018-03-25T11:31:58.977Z,30.80
2018-03-25T11:34:27.338Z,33.40
2018-03-25T11:36:55.702Z,29.30
2018-03-25T11:39:24.770Z,30.23
2018-03-25T11:41:53.116Z,28.77
2018-03-25T11:44:21.441Z,29.80
2018-03-25T11:46:50.555Z,28.43
2018-03-25T11:49:18.863Z,27.30
2018-03-25T11:51:47.223Z,27.60
2018-03-25T11:54:15.550Z,27.20
2018-03-25T11:56:44.774Z,28.37
2018-03-25T11:59:13.850Z,29.60
2018-03-25T12:01:42.963Z,27.80
2018-03-25T12:04:11.458Z,27.83
2018-03-25T12:06:40.542Z,25.67
2018-03-25T12:09:09.225Z,77.27
2018-03-25T12:11:38.331Z,28.87
2018-03-25T12:14:06.658Z,24.53
2018-03-25T12:16:36.534Z,24.00
2018-03-25T12:19:04.900Z,25.20
2018-03-25T12:21:33.238Z,23.93
2018-03-25T12:24:02.371Z,25.70
2018-03-25T12:26:31.471Z,26.57
2018-03-25T12:28:59.814Z,26.17
2018-03-25T12:31:28.151Z,27.47
2018-03-25T12:33:56.502Z,25.33
2018-03-25T12:36:24.824Z,23.37
2018-03-25T12:38:53.267Z,25.70
2018-03-25T12:41:21.591Z,22.40
2018-03-25T12:43:49.939Z,27.00
2018-03-25T12:46:18.297Z,28.03
2018-03-25T12:48:46.638Z,27.87
2018-03-25T12:51:15.724Z,22.03
2018-03-25T12:53:44.108Z,26.87
2018-03-25T12:56:12.423Z,39.53
2018-03-25T12:58:40.760Z,24.73
2018-03-25T13:01:09.878Z,23.30
2018-03-25T13:03:38.219Z,24.07
2018-03-25T13:06:06.535Z,21.97
2018-03-25T13:08:34.889Z,22.93
2018-03-25T13:11:03.489Z,24.33
2018-03-25T13:13:32.595Z,23.07
2018-03-25T13:16:00.902Z,24.47
2018-03-25T13:18:29.250Z,21.97
2018-03-25T13:20:57.565Z,23.67
2018-03-25T13:23:25.898Z,24.77
2018-03-25T13:25:54.243Z,26.90
2018-03-25T13:28:23.347Z,23.17
2018-03-25T13:30:51.695Z,26.00
2018-03-25T13:33:20.022Z,25.57
2018-03-25T13:35:49.116Z,24.20
2018-03-25T13:38:18.194Z,26.27
2018-03-25T13:40:47.308Z,23.60
2018-03-25T13:43:15.629Z,25.00
2018-03-25T13:45:44.374Z,25.77
2018-03-25T13:48:12.940Z,25.47
2018-03-25T13:50:42.071Z,25.97
2018-03-25T13:53:10.397Z,26.70
2018-03-25T13:55:38.770Z,22.90
2018-03-25T13:58:07.088Z,23.07
2018-03-25T14:00:35.415Z,26.73
2018-03-25T14:03:04.506Z,22.70
2018-03-25T14:05:32.849Z,22.03
2018-03-25T14:08:01.180Z,20.20
2018-03-25T14:10:29.571Z,22.73
2018-03-25T14:12:58.702Z,22.83
2018-03-25T14:15:27.770Z,23.37
2018-03-25T14:17:56.110Z,22.70
2018-03-25T14:20:25.262Z,23.53
2018-03-25T14:22:53.620Z,23.90
2018-03-25T14:25:21.944Z,23.13
2018-03-25T14:27:50.303Z,22.37
2018-03-25T14:30:18.634Z,25.53
2018-03-25T14:32:47.766Z,24.90
2018-03-25T14:35:16.113Z,25.03
2018-03-25T14:37:44.580Z,25.40
2018-03-25T14:40:14.010Z,24.27
2018-03-25T14:42:42.359Z,25.23
2018-03-25T14:45:10.702Z,26.47
2018-03-25T14:47:39.125Z,23.80
2018-03-25T14:50:08.195Z,23.73
2018-03-25T14:52:36.555Z,23.77
2018-03-25T14:55:04.909Z,22.80
2018-03-25T14:57:33.238Z,27.23
2018-03-25T15:00:01.555Z,34.00
2018-03-25T15:02:29.904Z,26.57
2018-03-25T15:04:58.238Z,24.20
2018-03-25T15:07:26.666Z,22.77
2018-03-25T15:09:55.000Z,23.63
2018-03-25T15:12:23.435Z,23.23
2018-03-25T15:14:51.842Z,24.70
2018-03-25T15:17:20.286Z,19.53
2018-03-25T15:19:49.367Z,24.40
2018-03-25T15:22:18.505Z,25.97
2018-03-25T15:24:46.818Z,20.83
2018-03-25T15:27:15.127Z,23.80
2018-03-25T15:29:43.505Z,23.13
2018-03-25T15:32:12.569Z,21.03
2018-03-25T15:34:42.423Z,24.40
2018-03-25T15:37:10.739Z,26.77
2018-03-25T15:39:39.269Z,24.07
2018-03-25T15:42:08.343Z,24.50
2018-03-25T15:44:36.674Z,24.37
2018-03-25T15:47:04.989Z,23.20
2018-03-25T15:49:33.342Z,23.37
2018-03-25T15:52:01.673Z,25.43
2018-03-25T15:54:30.776Z,24.63
2018-03-25T15:56:59.125Z,25.10
2018-03-25T15:59:27.515Z,22.27
2018-03-25T16:01:55.831Z,21.73
2018-03-25T16:04:24.177Z,25.30
2018-03-25T16:06:53.286Z,22.90
2018-03-25T16:09:21.622Z,23.63
2018-03-25T16:11:49.939Z,21.90
2018-03-25T16:14:18.275Z,24.90
2018-03-25T16:16:47.406Z,21.93
2018-03-25T16:19:16.507Z,23.27
2018-03-25T16:21:45.602Z,23.40
2018-03-25T16:24:13.983Z,22.63
2018-03-25T16:26:42.326Z,23.90
2018-03-25T16:29:11.428Z,25.70
2018-03-25T16:31:40.234Z,27.77
2018-03-25T16:34:08.574Z,22.10
2018-03-25T16:36:36.933Z,23.50
2018-03-25T16:39:05.354Z,25.07
2018-03-25T16:41:33.702Z,25.30
2018-03-25T16:44:02.027Z,22.13
2018-03-25T16:46:31.135Z,26.43
2018-03-25T16:48:59.454Z,25.95
2018-03-25T16:51:27.813Z,24.83
2018-03-25T16:53:56.110Z,21.93
2018-03-25T16:56:24.465Z,25.17
2018-03-25T16:58:53.406Z,24.80
2018-03-25T17:01:21.771Z,26.20
2018-03-25T17:03:50.875Z,25.57
2018-03-25T17:06:20.087Z,22.70
2018-03-25T17:08:48.486Z,21.23
2018-03-25T17:11:16.841Z,23.93
2018-03-25T17:13:45.165Z,20.80
2018-03-25T17:16:13.530Z,26.13
2018-03-25T17:18:41.926Z,35.10
2018-03-25T17:21:10.251Z,33.97
2018-03-25T17:23:39.327Z,26.57
2018-03-25T17:26:07.742Z,27.10
2018-03-25T17:28:36.077Z,27.03
2018-03-25T17:31:04.386Z,23.67
2018-03-25T17:33:32.726Z,27.37
2018-03-25T17:36:01.031Z,29.20
2018-03-25T17:38:29.394Z,32.00
2018-03-25T17:40:58.474Z,28.67
2018-03-25T17:43:26.814Z,32.90
2018-03-25T17:45:55.140Z,38.17
2018-03-25T17:48:24.258Z,37.60
2018-03-25T17:50:52.574Z,30.20
2018-03-25T17:53:20.947Z,31.10
2018-03-25T17:55:49.261Z,30.97
2018-03-25T17:58:17.605Z,37.13
2018-03-25T18:00:45.906Z,33.17
2018-03-25T18:03:14.237Z,32.43
2018-03-25T18:05:42.614Z,29.60
2018-03-25T18:08:10.913Z,49.57
2018-03-25T18:10:39.231Z,32.83
2018-03-25T18:13:07.599Z,32.70
2018-03-25T18:15:36.695Z,26.53
2018-03-25T18:18:05.070Z,27.83
2018-03-25T18:20:33.390Z,28.33
2018-03-25T18:23:01.802Z,29.13
2018-03-25T18:25:30.129Z,26.40
2018-03-25T18:27:58.472Z,27.60
2018-03-25T18:30:26.862Z,31.00
2018-03-25T18:32:55.236Z,28.50
2018-03-25T18:35:23.578Z,26.27
2018-03-25T18:37:51.891Z,26.23
2018-03-25T18:40:20.234Z,22.70
2018-03-25T18:42:48.537Z,25.93
2018-03-25T18:45:17.667Z,27.57
2018-03-25T18:47:46.050Z,24.67
2018-03-25T18:50:14.414Z,26.00
2018-03-25T18:52:42.769Z,28.87
2018-03-25T18:55:11.125Z,34.00
2018-03-25T18:57:39.448Z,56.70
2018-03-25T19:00:08.541Z,32.73
2018-03-25T19:02:36.886Z,31.37
2018-03-25T19:05:05.273Z,30.27
2018-03-25T19:07:34.378Z,27.73
2018-03-25T19:10:03.504Z,33.77
2018-03-25T19:12:31.871Z,28.33
2018-03-25T19:15:00.242Z,30.20
2018-03-25T19:17:29.318Z,28.57
2018-03-25T19:19:57.654Z,29.87
2018-03-25T19:22:25.977Z,29.93
2018-03-25T19:24:55.869Z,32.67
2018-03-25T19:27:24.999Z,31.67
2018-03-25T19:29:53.336Z,33.20
2018-03-25T19:32:21.699Z,33.20
2018-03-25T19:34:50.023Z,31.53
2018-03-25T19:37:18.418Z,34.33
2018-03-25T19:39:46.785Z,31.40
2018-03-25T19:42:15.134Z,34.43
2018-03-25T19:44:43.447Z,34.93
2018-03-25T19:47:12.555Z,31.43
2018-03-25T19:49:41.618Z,36.37
2018-03-25T19:52:09.990Z,34.40
2018-03-25T19:54:39.100Z,33.77
2018-03-25T19:57:08.198Z,36.30
2018-03-25T19:59:37.608Z,31.00
2018-03-25T20:02:05.958Z,30.00
2018-03-25T20:04:34.261Z,30.00
2018-03-25T20:07:02.615Z,35.73
2018-03-25T20:09:30.915Z,32.30
2018-03-25T20:11:59.599Z,29.27
2018-03-25T20:14:27.967Z,35.13
2018-03-25T20:16:57.077Z,31.57
2018-03-25T20:19:25.429Z,33.50
2018-03-25T20:21:54.553Z,35.67
2018-03-25T20:24:23.618Z,35.90
2018-03-25T20:26:52.008Z,34.80
2018-03-25T20:29:20.311Z,33.13
2018-03-25T20:31:48.666Z,32.50
2018-03-25T20:34:17.010Z,33.97
2018-03-25T20:36:45.326Z,32.63
2018-03-25T20:39:14.413Z,35.23
2018-03-25T20:41:43.482Z,32.27
2018-03-25T20:44:12.598Z,31.77
2018-03-25T20:46:41.677Z,33.13
2018-03-25T20:49:10.030Z,34.13
2018-03-25T20:51:38.362Z,30.83
2018-03-25T20:54:07.506Z,31.53
2018-03-25T20:56:36.141Z,32.90
2018-03-25T20:59:05.230Z,35.30
2018-03-25T21:01:33.543Z,32.47
2018-03-25T21:04:01.922Z,35.03
2018-03-25T21:06:30.353Z,38.57
2018-03-25T21:08:58.682Z,34.63
2018-03-25T21:11:26.995Z,32.57
2018-03-25T21:13:55.342Z,35.57
2018-03-25T21:16:23.655Z,33.63
2018-03-25T21:18:52.011Z,36.37
2018-03-25T21:21:20.315Z,31.80
2018-03-25T21:23:49.414Z,32.47
2018-03-25T21:26:17.762Z,33.13
2018-03-25T21:28:46.140Z,37.43
2018-03-25T21:31:14.466Z,36.47
2018-03-25T21:33:43.534Z,34.03
2018-03-25T21:36:12.219Z,33.60
2018-03-25T21:38:40.512Z,36.07
2018-03-25T21:41:09.910Z,35.00
2018-03-25T21:43:38.978Z,32.57
2018-03-25T21:46:07.722Z,39.80
2018-03-25T21:48:36.064Z,34.60
2018-03-25T21:51:04.430Z,33.10
2018-03-25T21:53:33.510Z,32.07
2018-03-25T21:56:02.629Z,34.10
2018-03-25T21:58:31.694Z,29.80
2018-03-25T22:01:00.039Z,33.33
2018-03-25T22:03:28.529Z,33.57
2018-03-25T22:05:56.854Z,31.27
2018-03-25T22:08:25.214Z,32.50
2018-03-25T22:10:54.361Z,32.03
2018-03-25T22:13:22.718Z,32.30
2018-03-25T22:15:51.900Z,31.13
2018-03-25T22:18:31.354Z,28.07
2018-03-25T22:20:59.691Z,31.90
2018-03-25T22:23:29.506Z,32.40
2018-03-25T22:25:57.832Z,31.10
2018-03-25T22:28:26.158Z,32.60
2018-03-25T22:30:55.282Z,33.10
2018-03-25T22:33:23.614Z,32.90
2018-03-25T22:35:52.250Z,34.37
2018-03-25T22:38:21.315Z,33.07
2018-03-25T22:40:49.638Z,32.93
2018-03-25T22:43:17.946Z,29.07
2018-03-25T22:45:46.486Z,31.37
2018-03-25T22:48:15.062Z,27.43
2018-03-25T22:50:43.381Z,31.83
2018-03-25T22:53:11.734Z,31.67
2018-03-25T22:55:40.072Z,28.47
2018-03-25T22:58:08.394Z,29.13
2018-03-25T23:00:36.953Z,27.23
2018-03-25T23:03:09.427Z,28.17
2018-03-25T23:05:38.485Z,29.10
2018-03-25T23:08:06.823Z,26.03
2018-03-25T23:10:35.133Z,29.10
2018-03-25T23:13:03.468Z,26.53
2018-03-25T23:15:31.770Z,28.67
2018-03-25T23:18:00.203Z,30.07
2018-03-25T23:20:29.301Z,24.37
2018-03-25T23:22:57.662Z,26.73
2018-03-25T23:25:25.969Z,27.43
2018-03-25T23:27:54.301Z,28.50
2018-03-25T23:30:22.605Z,29.37
2018-03-25T23:32:51.798Z,26.93
2018-03-25T23:35:20.878Z,25.90
2018-03-25T23:37:49.270Z,27.23
2018-03-25T23:40:17.592Z,27.47
2018-03-25T23:42:45.926Z,26.83
2018-03-25T23:45:14.986Z,28.23
2018-03-25T23:47:43.378Z,27.83
2018-03-25T23:50:12.477Z,25.43
2018-03-25T23:52:41.551Z,26.20
2018-03-25T23:55:09.934Z,28.53
2018-03-25T23:57:39.046Z,26.83
